createdAt,value
2022-09-30T00:01:39.792Z,87.20
2022-09-30T00:04:08.153Z,87.00
2022-09-30T00:06:35.287Z,86.70
2022-09-30T00:09:03.461Z,87.00
2022-09-30T00:11:33.867Z,87.00
2022-09-30T00:14:02.425Z,86.80
2022-09-30T00:16:32.868Z,86.70
2022-09-30T00:19:00.552Z,86.70
2022-09-30T00:21:28.704Z,86.80
2022-09-30T00:23:55.764Z,86.90
2022-09-30T00:26:24.027Z,86.60
2022-09-30T00:28:52.410Z,87.00
2022-09-30T00:31:20.669Z,87.20
2022-09-30T00:34:07.117Z,87.30
2022-09-30T00:36:35.665Z,87.10
2022-09-30T00:39:03.747Z,86.70
2022-09-30T00:41:31.286Z,86.90
2022-09-30T00:43:57.978Z,86.60
2022-09-30T00:46:44.588Z,86.50
2022-09-30T00:49:19.913Z,86.90
2022-09-30T00:51:53.236Z,86.70
2022-09-30T00:54:30.721Z,86.60
2022-09-30T00:57:02.453Z,86.50
2022-09-30T00:59:41.628Z,86.60
2022-09-30T01:02:10.217Z,86.50
2022-09-30T01:04:38.284Z,86.50
2022-09-30T01:07:08.025Z,86.50
2022-09-30T01:09:40.635Z,86.50
2022-09-30T01:12:12.446Z,86.60
2022-09-30T01:14:40.588Z,86.70
2022-09-30T01:17:25.755Z,86.70
2022-09-30T01:20:22.457Z,86.60
2022-09-30T01:23:04.452Z,86.40
2022-09-30T01:26:00.244Z,86.60
2022-09-30T01:28:44.716Z,86.80
2022-09-30T01:31:19.359Z,86.60
2022-09-30T01:34:13.843Z,86.70
2022-09-30T01:37:02.307Z,86.60
2022-09-30T01:39:43.177Z,86.30
2022-09-30T01:42:24.642Z,86.50
2022-09-30T01:45:07.785Z,86.60
2022-09-30T01:47:44.602Z,86.50
2022-09-30T01:50:32.674Z,86.40
2022-09-30T01:53:22.231Z,86.50
2022-09-30T01:56:11.297Z,86.60
2022-09-30T01:59:06.935Z,86.70
2022-09-30T02:02:02.422Z,86.70
2022-09-30T02:04:41.139Z,86.60
2022-09-30T02:07:25.136Z,86.60
2022-09-30T02:09:58.177Z,86.60
2022-09-30T02:12:30.183Z,87.60
2022-09-30T02:15:06.088Z,86.90
2022-09-30T02:17:49.480Z,87.10
2022-09-30T02:20:29.987Z,87.10
2022-09-30T02:23:35.253Z,86.80
2022-09-30T02:26:16.853Z,86.70
2022-09-30T02:28:49.772Z,87.00
2022-09-30T02:31:18.650Z,86.80
2022-09-30T02:33:50.563Z,86.90
2022-09-30T02:36:34.901Z,86.60
2022-09-30T02:39:10.009Z,86.60
2022-09-30T02:41:46.804Z,86.60
2022-09-30T02:44:14.876Z,87.00
2022-09-30T02:46:58.706Z,86.70
2022-09-30T02:49:31.279Z,86.50
2022-09-30T02:52:07.546Z,86.50
2022-09-30T02:54:44.954Z,86.70
2022-09-30T02:57:22.296Z,86.50
2022-09-30T02:59:52.354Z,86.50
2022-09-30T03:02:20.853Z,86.60
2022-09-30T03:04:50.321Z,86.60
2022-09-30T03:07:17.852Z,86.50
2022-09-30T03:09:45.230Z,86.40
2022-09-30T03:12:40.125Z,86.30
2022-09-30T03:15:31.833Z,86.40
2022-09-30T03:18:17.892Z,86.40
2022-09-30T03:21:07.813Z,86.60
2022-09-30T03:23:50.530Z,86.80
2022-09-30T03:26:51.935Z,86.90
2022-09-30T03:29:36.506Z,86.60
2022-09-30T03:32:16.823Z,86.60
2022-09-30T03:35:07.983Z,86.60
2022-09-30T03:37:40.418Z,86.60
2022-09-30T03:40:35.990Z,86.80
2022-09-30T03:43:09.212Z,86.60
2022-09-30T03:45:55.282Z,86.60
2022-09-30T03:48:24.224Z,86.30
2022-09-30T03:50:52.155Z,86.70
2022-09-30T03:53:19.858Z,86.50
2022-09-30T03:55:52.127Z,86.30
2022-09-30T03:58:22.142Z,86.70
2022-09-30T04:00:52.810Z,86.50
2022-09-30T04:03:21.097Z,86.60
2022-09-30T04:05:48.514Z,86.50
2022-09-30T04:08:16.048Z,86.50
2022-09-30T04:10:44.281Z,86.30
2022-09-30T04:13:12.313Z,86.60
2022-09-30T04:15:40.531Z,86.30
2022-09-30T04:18:07.842Z,86.40
2022-09-30T04:20:34.731Z,86.30
2022-09-30T04:23:02.761Z,86.40
2022-09-30T04:25:29.622Z,86.30
2022-09-30T04:27:57.085Z,86.40
2022-09-30T04:30:26.294Z,86.30
2022-09-30T04:32:54.216Z,86.30
2022-09-30T04:35:21.035Z,86.30
2022-09-30T04:37:48.616Z,86.20
2022-09-30T04:40:17.313Z,86.30
2022-09-30T04:42:45.053Z,86.40
2022-09-30T04:45:15.109Z,85.90
2022-09-30T04:47:45.475Z,85.90
2022-09-30T04:50:12.225Z,85.40
2022-09-30T04:52:43.100Z,85.30
2022-09-30T04:55:10.498Z,85.10
2022-09-30T04:57:37.688Z,85.00
2022-09-30T05:00:05.508Z,84.90
2022-09-30T05:02:32.346Z,85.00
2022-09-30T05:04:59.020Z,85.10
2022-09-30T05:07:26.882Z,85.10
2022-09-30T05:09:53.540Z,85.20
2022-09-30T05:12:21.121Z,85.20
2022-09-30T05:14:52.170Z,85.50
2022-09-30T05:17:18.977Z,85.60
2022-09-30T05:19:45.755Z,85.90
2022-09-30T05:22:14.042Z,85.80
2022-09-30T05:24:40.755Z,85.80
2022-09-30T05:27:07.740Z,86.10
2022-09-30T05:29:34.592Z,86.00
2022-09-30T05:32:01.717Z,85.70
2022-09-30T05:34:28.426Z,86.50
2022-09-30T05:36:55.066Z,86.40
2022-09-30T05:39:21.835Z,86.50
2022-09-30T05:41:48.550Z,86.80
2022-09-30T05:44:15.268Z,86.40
2022-09-30T05:46:43.702Z,87.20
2022-09-30T05:49:10.669Z,86.20
2022-09-30T05:51:37.480Z,86.50
2022-09-30T05:54:07.567Z,86.10
2022-09-30T05:56:35.143Z,86.20
2022-09-30T05:59:01.941Z,86.40
2022-09-30T06:01:28.953Z,86.30
2022-09-30T06:03:56.476Z,86.30
2022-09-30T06:06:23.531Z,86.20
2022-09-30T06:08:50.409Z,86.00
2022-09-30T06:11:19.946Z,85.90
2022-09-30T06:13:47.616Z,85.70
2022-09-30T06:16:14.592Z,86.10
2022-09-30T06:18:41.736Z,85.90
2022-09-30T06:21:12.429Z,86.30
2022-09-30T06:23:39.666Z,85.50
2022-09-30T06:26:08.662Z,85.20
2022-09-30T06:28:35.782Z,85.30
2022-09-30T06:31:04.211Z,85.10
2022-09-30T06:33:31.953Z,85.30
2022-09-30T06:35:59.175Z,85.10
2022-09-30T06:38:27.888Z,85.10
2022-09-30T06:40:56.599Z,85.40
2022-09-30T06:43:23.510Z,85.20
2022-09-30T06:45:51.812Z,85.40
2022-09-30T06:48:30.844Z,85.20
2022-09-30T06:51:02.649Z,85.30
2022-09-30T06:53:29.691Z,85.20
2022-09-30T06:55:57.777Z,85.10
2022-09-30T06:58:25.164Z,85.00
2022-09-30T07:01:04.096Z,85.00
2022-09-30T07:03:36.192Z,84.80
2022-09-30T07:06:05.209Z,84.60
2022-09-30T07:08:34.314Z,84.50
2022-09-30T07:11:04.502Z,84.80
2022-09-30T07:13:33.181Z,84.70
2022-09-30T07:16:00.156Z,84.80
2022-09-30T07:18:28.016Z,84.70
2022-09-30T07:20:56.458Z,84.80
2022-09-30T07:23:27.110Z,84.60
2022-09-30T07:26:00.335Z,85.30
2022-09-30T07:28:31.457Z,85.20
2022-09-30T07:31:20.330Z,84.80
2022-09-30T07:33:47.702Z,85.10
2022-09-30T07:36:18.681Z,85.10
2022-09-30T07:38:49.843Z,85.10
2022-09-30T07:41:21.793Z,85.00
2022-09-30T07:43:48.943Z,85.00
2022-09-30T07:46:20.458Z,84.90
2022-09-30T07:48:50.541Z,85.20
2022-09-30T07:51:21.359Z,85.20
2022-09-30T07:53:53.772Z,85.30
2022-09-30T07:56:21.865Z,85.00
2022-09-30T07:58:49.394Z,85.40
2022-09-30T08:01:16.802Z,85.30
2022-09-30T08:03:46.818Z,85.20
2022-09-30T08:06:19.697Z,85.30
2022-09-30T08:08:47.414Z,85.50
2022-09-30T08:11:14.906Z,85.50
2022-09-30T08:13:41.754Z,85.50
2022-09-30T08:16:08.871Z,85.60
2022-09-30T08:18:38.992Z,85.50
2022-09-30T08:21:06.740Z,85.40
2022-09-30T08:23:34.668Z,85.20
2022-09-30T08:26:09.925Z,85.40
2022-09-30T08:28:38.386Z,85.20
2022-09-30T08:31:12.544Z,85.40
2022-09-30T08:33:40.226Z,85.20
2022-09-30T08:36:10.410Z,85.30
2022-09-30T08:38:37.631Z,85.00
2022-09-30T08:41:30.661Z,85.30
2022-09-30T08:44:20.979Z,84.90
2022-09-30T08:46:58.619Z,85.30
2022-09-30T08:49:54.120Z,85.20
2022-09-30T08:52:44.708Z,85.70
2022-09-30T08:55:33.443Z,85.10
2022-09-30T08:58:04.881Z,84.90
2022-09-30T09:00:31.901Z,84.50
2022-09-30T09:03:00.663Z,84.20
2022-09-30T09:06:22.231Z,84.10
2022-09-30T09:09:08.322Z,83.80
2022-09-30T09:11:49.268Z,83.20
2022-09-30T09:14:50.694Z,83.10
2022-09-30T09:18:21.950Z,82.70
2022-09-30T09:20:57.930Z,82.20
2022-09-30T09:23:26.417Z,81.90
2022-09-30T09:25:54.741Z,81.90
2022-09-30T09:28:35.858Z,81.50
2022-09-30T09:31:04.006Z,81.30
2022-09-30T09:33:40.421Z,81.20
2022-09-30T09:36:40.884Z,81.20
2022-09-30T09:39:36.402Z,80.70
2022-09-30T09:42:27.433Z,81.00
2022-09-30T09:45:03.463Z,80.90
2022-09-30T09:47:30.331Z,80.60
2022-09-30T09:50:01.018Z,80.80
2022-09-30T09:52:49.493Z,81.40
2022-09-30T09:55:21.044Z,81.50
2022-09-30T09:57:47.957Z,82.00
2022-09-30T10:01:00.850Z,82.30
2022-09-30T10:03:28.377Z,82.60
2022-09-30T10:06:06.042Z,82.40
2022-09-30T10:08:35.965Z,83.10
2022-09-30T10:11:05.932Z,82.80
2022-09-30T10:13:38.816Z,82.80
2022-09-30T10:16:05.857Z,82.70
2022-09-30T10:18:35.972Z,82.80
2022-09-30T10:21:19.371Z,82.80
2022-09-30T10:23:46.258Z,82.70
2022-09-30T10:26:24.332Z,82.90
2022-09-30T10:28:54.238Z,83.30
2022-09-30T10:31:32.307Z,83.60
2022-09-30T10:34:10.457Z,84.00
2022-09-30T10:36:43.351Z,84.80
2022-09-30T10:39:31.992Z,84.40
2022-09-30T10:42:08.492Z,87.50
2022-09-30T10:44:57.553Z,90.10
2022-09-30T10:47:32.595Z,90.60
2022-09-30T10:50:10.729Z,91.20
2022-09-30T10:52:50.658Z,91.10
2022-09-30T10:55:20.081Z,90.90
2022-09-30T10:57:47.726Z,90.50
2022-09-30T11:00:21.757Z,89.70
2022-09-30T11:03:03.885Z,89.90
2022-09-30T11:05:31.600Z,89.70
2022-09-30T11:08:01.571Z,89.80
2022-09-30T11:10:46.584Z,90.00
2022-09-30T11:13:25.955Z,90.00
2022-09-30T11:16:26.783Z,90.00
2022-09-30T11:18:56.201Z,90.00
2022-09-30T11:21:26.968Z,90.00
2022-09-30T11:23:56.634Z,89.50
2022-09-30T11:26:51.594Z,89.00
2022-09-30T11:29:41.076Z,88.30
2022-09-30T11:32:30.506Z,87.60
2022-09-30T11:35:03.876Z,87.30
2022-09-30T11:38:11.931Z,87.00
2022-09-30T11:40:38.548Z,86.70
2022-09-30T11:43:15.011Z,86.50
2022-09-30T11:45:49.804Z,86.00
2022-09-30T11:48:22.757Z,84.80
2022-09-30T11:50:55.014Z,84.90
2022-09-30T11:53:34.481Z,84.30
2022-09-30T11:56:07.293Z,84.40
2022-09-30T11:58:50.005Z,84.10
2022-09-30T12:01:33.310Z,84.20
2022-09-30T12:04:14.686Z,84.10
2022-09-30T12:06:48.703Z,84.10
2022-09-30T12:09:26.014Z,83.80
2022-09-30T12:12:02.214Z,83.90
2022-09-30T12:14:32.203Z,84.20
2022-09-30T12:17:01.961Z,83.90
2022-09-30T12:19:38.164Z,84.20
2022-09-30T12:22:25.566Z,83.80
2022-09-30T12:24:52.906Z,83.70
2022-09-30T12:27:44.900Z,84.00
2022-09-30T12:30:19.669Z,83.90
2022-09-30T12:33:11.463Z,83.90
2022-09-30T12:35:59.857Z,83.70
2022-09-30T12:38:41.876Z,83.20
2022-09-30T12:41:31.216Z,83.10
2022-09-30T12:44:26.152Z,83.00
2022-09-30T12:47:27.585Z,83.80
2022-09-30T12:49:59.228Z,83.30
2022-09-30T12:52:32.009Z,83.20
2022-09-30T12:55:08.782Z,83.40
2022-09-30T12:57:41.666Z,83.70
2022-09-30T13:00:21.149Z,83.40
2022-09-30T13:02:55.269Z,83.40
2022-09-30T13:05:46.315Z,83.50
2022-09-30T13:08:15.951Z,83.30
2022-09-30T13:10:54.069Z,83.30
2022-09-30T13:13:25.103Z,83.50
2022-09-30T13:15:53.788Z,83.80
2022-09-30T13:18:20.488Z,83.90
2022-09-30T13:20:58.543Z,84.10
2022-09-30T13:23:41.383Z,84.10
2022-09-30T13:26:26.496Z,84.50
2022-09-30T13:29:15.819Z,84.70
2022-09-30T13:31:45.684Z,84.50
2022-09-30T13:34:21.944Z,84.70
2022-09-30T13:36:52.543Z,84.50
2022-09-30T13:39:34.767Z,85.10
2022-09-30T13:42:17.741Z,85.50
2022-09-30T13:45:02.942Z,87.10
2022-09-30T13:47:43.081Z,89.70
2022-09-30T13:50:31.816Z,89.70
2022-09-30T13:53:07.085Z,89.70
2022-09-30T13:55:45.589Z,89.20
2022-09-30T13:58:43.975Z,88.50
2022-09-30T14:01:36.154Z,88.10
2022-09-30T14:04:23.472Z,88.20
2022-09-30T14:07:10.740Z,88.00
2022-09-30T14:10:10.507Z,88.30
2022-09-30T14:12:44.930Z,88.30
2022-09-30T14:15:36.017Z,88.80
2022-09-30T14:18:23.209Z,88.60
2022-09-30T14:21:01.936Z,88.60
2022-09-30T14:23:29.348Z,88.80
2022-09-30T14:26:07.864Z,89.10
2022-09-30T14:28:53.845Z,89.10
2022-09-30T14:31:20.790Z,88.60
2022-09-30T14:33:49.967Z,89.40
2022-09-30T14:39:05.911Z,89.10
2022-09-30T14:41:34.697Z,89.80
2022-09-30T14:44:08.158Z,89.80
2022-09-30T14:46:42.897Z,90.00
2022-09-30T14:49:15.107Z,90.10
2022-09-30T14:51:45.688Z,90.10
2022-09-30T14:54:22.989Z,90.30
2022-09-30T14:56:51.107Z,90.20
2022-09-30T14:59:21.571Z,90.30
2022-09-30T15:01:51.420Z,90.50
2022-09-30T15:04:24.164Z,90.40
2022-09-30T15:06:52.258Z,90.60
2022-09-30T15:09:22.242Z,90.70
2022-09-30T15:11:49.044Z,90.80
2022-09-30T15:14:21.203Z,90.90
2022-09-30T15:17:01.309Z,91.00
2022-09-30T15:19:43.002Z,90.70
2022-09-30T15:22:12.410Z,90.80
2022-09-30T15:24:40.990Z,90.60
2022-09-30T15:27:19.640Z,90.70
2022-09-30T15:30:00.563Z,90.70
2022-09-30T15:32:32.706Z,90.50
2022-09-30T15:35:29.712Z,90.60
2022-09-30T15:38:17.839Z,90.70
2022-09-30T15:40:46.017Z,90.50
2022-09-30T15:43:17.251Z,90.60
2022-09-30T15:45:46.346Z,90.40
2022-09-30T15:48:16.934Z,90.40
2022-09-30T15:50:46.277Z,90.40
2022-09-30T15:53:31.984Z,90.40
2022-09-30T15:56:00.259Z,90.30
2022-09-30T15:58:27.096Z,90.30
2022-09-30T16:01:09.350Z,90.30
2022-09-30T16:03:36.844Z,90.30
2022-09-30T16:06:09.700Z,90.30
2022-09-30T16:08:46.674Z,90.40
2022-09-30T16:11:30.662Z,90.30
2022-09-30T16:13:59.365Z,90.30
2022-09-30T16:16:29.401Z,90.40
2022-09-30T16:18:57.965Z,90.20
2022-09-30T16:21:45.433Z,90.10
2022-09-30T16:24:24.377Z,90.20
2022-09-30T16:26:55.661Z,90.10
2022-09-30T16:29:23.852Z,90.20
2022-09-30T16:31:52.366Z,90.30
2022-09-30T16:34:29.696Z,90.20
2022-09-30T16:37:12.695Z,90.30
2022-09-30T16:39:40.356Z,90.40
2022-09-30T16:42:12.933Z,90.20
2022-09-30T16:44:39.819Z,90.10
2022-09-30T16:47:06.591Z,90.20
2022-09-30T16:49:34.621Z,90.20
2022-09-30T16:52:01.447Z,90.30
2022-09-30T16:54:28.195Z,90.10
2022-09-30T16:56:57.716Z,90.20
2022-09-30T16:59:27.704Z,90.10
2022-09-30T17:01:54.500Z,90.30
2022-09-30T17:04:21.430Z,90.20
2022-09-30T17:06:49.187Z,90.20
2022-09-30T17:09:15.915Z,90.10
2022-09-30T17:11:42.592Z,90.20
2022-09-30T17:14:09.332Z,90.30
2022-09-30T17:16:36.543Z,90.30
2022-09-30T17:19:03.931Z,90.30
2022-09-30T17:21:30.818Z,90.30
2022-09-30T17:23:59.620Z,90.50
2022-09-30T17:26:26.675Z,90.30
2022-09-30T17:28:57.617Z,90.50
2022-09-30T17:31:31.033Z,90.40
2022-09-30T17:33:58.346Z,90.50
2022-09-30T17:36:25.650Z,90.50
2022-09-30T17:38:54.628Z,90.60
2022-09-30T17:41:39.843Z,90.60
2022-09-30T17:44:06.685Z,90.70
2022-09-30T17:46:42.411Z,90.70
2022-09-30T17:49:09.563Z,90.70
2022-09-30T17:51:37.650Z,90.90
2022-09-30T17:54:07.715Z,90.90
2022-09-30T17:56:34.898Z,90.80
2022-09-30T17:59:03.004Z,90.90
2022-09-30T18:01:31.266Z,90.90
2022-09-30T18:04:00.366Z,91.00
2022-09-30T18:06:28.631Z,91.10
2022-09-30T18:08:55.909Z,91.10
2022-09-30T18:11:23.894Z,91.10
2022-09-30T18:13:55.823Z,91.00
2022-09-30T18:16:24.412Z,91.10
2022-09-30T18:18:51.505Z,91.10
2022-09-30T18:21:18.345Z,91.20
2022-09-30T18:23:45.105Z,91.00
2022-09-30T18:26:12.220Z,91.40
2022-09-30T18:28:39.740Z,91.10
2022-09-30T18:31:08.303Z,91.10
2022-09-30T18:33:35.572Z,91.10
2022-09-30T18:36:06.677Z,91.00
2022-09-30T18:38:36.319Z,90.90
2022-09-30T18:41:07.460Z,90.90
2022-09-30T18:43:34.577Z,90.80
2022-09-30T18:46:02.282Z,90.80
2022-09-30T18:48:29.293Z,90.80
2022-09-30T18:51:04.970Z,90.70
2022-09-30T18:53:34.531Z,90.80
2022-09-30T18:56:02.508Z,90.90
2022-09-30T18:58:31.921Z,90.70
2022-09-30T19:01:03.185Z,90.90
2022-09-30T19:03:31.422Z,90.80
2022-09-30T19:06:00.748Z,90.80
2022-09-30T19:08:27.862Z,90.90
2022-09-30T19:10:55.061Z,90.90
2022-09-30T19:13:23.914Z,90.90
2022-09-30T19:15:50.594Z,90.90
2022-09-30T19:18:17.869Z,90.80
2022-09-30T19:20:45.892Z,90.70
2022-09-30T19:23:13.736Z,90.80
2022-09-30T19:25:41.473Z,90.80
2022-09-30T19:28:09.644Z,90.90
2022-09-30T19:30:41.991Z,90.70
2022-09-30T19:33:10.052Z,90.80
2022-09-30T19:35:40.782Z,91.00
2022-09-30T19:38:08.129Z,91.20
2022-09-30T19:40:34.832Z,91.30
2022-09-30T19:43:02.074Z,91.30
2022-09-30T19:45:29.220Z,91.20
2022-09-30T19:47:56.721Z,91.10
2022-09-30T19:50:23.402Z,91.20
2022-09-30T19:52:57.012Z,91.40
2022-09-30T19:55:25.374Z,91.30
2022-09-30T19:57:52.194Z,91.20
2022-09-30T20:00:23.974Z,91.40
2022-09-30T20:02:50.776Z,91.60
2022-09-30T20:05:18.484Z,91.20
2022-09-30T20:07:50.862Z,91.10
2022-09-30T20:10:28.905Z,91.00
2022-09-30T20:12:57.929Z,91.20
2022-09-30T20:15:46.107Z,91.10
2022-09-30T20:18:15.460Z,91.10
2022-09-30T20:20:46.462Z,91.10
2022-09-30T20:23:14.960Z,91.10
2022-09-30T20:25:42.301Z,91.00
2022-09-30T20:28:09.232Z,91.40
2022-09-30T20:30:40.466Z,91.20
2022-09-30T20:33:07.370Z,91.10
2022-09-30T20:35:37.306Z,91.20
2022-09-30T20:38:04.393Z,91.10
2022-09-30T20:40:32.765Z,91.10
2022-09-30T20:43:01.687Z,91.00
2022-09-30T20:45:28.721Z,91.20
2022-09-30T20:47:56.329Z,91.20
2022-09-30T20:50:35.228Z,91.20
2022-09-30T20:53:07.805Z,91.10
2022-09-30T20:55:40.246Z,91.30
2022-09-30T20:58:08.421Z,91.00
2022-09-30T21:00:38.715Z,90.90
2022-09-30T21:03:08.155Z,90.90
2022-09-30T21:05:35.768Z,90.90
2022-09-30T21:08:03.546Z,90.90
2022-09-30T21:10:31.850Z,91.00
2022-09-30T21:13:01.504Z,91.00
2022-09-30T21:15:31.672Z,91.30
2022-09-30T21:17:59.045Z,91.20
2022-09-30T21:20:27.268Z,91.20
2022-09-30T21:22:55.134Z,91.20
2022-09-30T21:25:22.018Z,91.20
2022-09-30T21:27:49.273Z,91.10
2022-09-30T21:30:17.701Z,91.20
2022-09-30T21:32:48.830Z,91.10
2022-09-30T21:35:15.933Z,91.10
2022-09-30T21:37:43.351Z,91.00
2022-09-30T21:40:11.277Z,90.90
2022-09-30T21:42:38.076Z,91.10
2022-09-30T21:45:05.557Z,91.10
2022-09-30T21:47:32.274Z,91.00
2022-09-30T21:49:58.996Z,91.10
2022-09-30T21:52:27.648Z,91.00
2022-09-30T21:54:57.502Z,91.00
2022-09-30T21:57:24.298Z,91.50
2022-09-30T21:59:51.002Z,91.80
2022-09-30T22:02:18.243Z,92.00
2022-09-30T22:04:45.475Z,92.10
2022-09-30T22:07:13.161Z,92.10
2022-09-30T22:09:42.992Z,92.10
2022-09-30T22:12:10.011Z,92.10
2022-09-30T22:14:38.431Z,92.60
2022-09-30T22:17:09.199Z,92.20
2022-09-30T22:19:38.442Z,92.20
2022-09-30T22:22:05.698Z,92.00
2022-09-30T22:24:33.164Z,92.10
2022-09-30T22:27:00.546Z,92.10
2022-09-30T22:29:27.496Z,92.10
2022-09-30T22:31:54.194Z,92.20
2022-09-30T22:34:39.849Z,92.20
2022-09-30T22:37:26.293Z,92.00
2022-09-30T22:39:56.275Z,91.90
2022-09-30T22:42:29.464Z,92.10
2022-09-30T22:44:56.886Z,92.00
2022-09-30T22:47:24.198Z,91.90
2022-09-30T22:49:50.973Z,92.00
2022-09-30T22:52:17.677Z,92.00
2022-09-30T22:54:44.537Z,91.90
2022-09-30T22:57:12.278Z,91.90
2022-09-30T22:59:39.255Z,91.90
2022-09-30T23:02:06.139Z,91.90
2022-09-30T23:04:33.210Z,91.80
2022-09-30T23:07:00.449Z,91.80
2022-09-30T23:09:27.127Z,92.00
2022-09-30T23:11:54.929Z,91.70
2022-09-30T23:14:22.531Z,91.70
2022-09-30T23:16:49.848Z,91.80
2022-09-30T23:19:16.707Z,91.70
2022-09-30T23:21:43.539Z,91.70
2022-09-30T23:24:10.585Z,91.70
2022-09-30T23:26:37.863Z,91.70
2022-09-30T23:29:07.492Z,91.80
2022-09-30T23:31:34.740Z,91.60
2022-09-30T23:34:03.045Z,91.60
2022-09-30T23:36:32.346Z,91.80
2022-09-30T23:39:12.450Z,91.60
2022-09-30T23:41:39.374Z,91.60
2022-09-30T23:44:06.286Z,91.60
2022-09-30T23:46:32.968Z,91.40
2022-09-30T23:48:59.643Z,91.60
2022-09-30T23:51:29.289Z,91.50
2022-09-30T23:53:56.076Z,91.50
2022-09-30T23:56:23.256Z,91.50
2022-09-30T23:58:50.460Z,91.50
